Time;durP1;ratioP1;P1;durP2;ratioP2;P2;SDS_P1;SDS_P2;PMS_P1;PMS_P2;Temp;Humidity;BMP_temperature;BMP_pressure;BME280_temperature;BME280_humidity;BME280_pressure;Samples;Min_cycle;Max_cycle;Signal;HPM_P1;HPM_P2
2022/05/29 00:02:03;;;;;;;;;;;11.50;99.90;;;;;;4997413;28;36484;-55
2022/05/29 00:04:30;;;;;;;;;;;11.50;99.90;;;;;;4997272;28;38405;-56
2022/05/29 00:06:58;;;;;;;;;;;11.50;99.90;;;;;;4997758;28;39665;-56
2022/05/29 00:09:31;;;;;;;;;;;11.50;99.90;;;;;;4997782;28;37132;-56
2022/05/29 00:11:59;;;;;;;;;;;11.60;99.90;;;;;;4997267;28;36347;-56
2022/05/29 00:14:28;;;;;;;;;;;11.60;99.90;;;;;;4998567;28;38641;-56
2022/05/29 00:16:56;;;;;;;;;;;11.50;99.90;;;;;;4997419;28;38700;-56
2022/05/29 00:19:24;;;;;;;;;;;11.60;99.90;;;;;;4997241;28;38395;-56
2022/05/29 00:21:51;;;;;;;;;;;11.60;99.90;;;;;;4997980;28;35323;-56
2022/05/29 00:24:18;;;;;;;;;;;11.60;99.90;;;;;;4998134;28;38370;-56
2022/05/29 00:26:46;;;;;;;;;;;11.60;99.90;;;;;;4998479;28;38211;-56
2022/05/29 00:29:13;;;;;;;;;;;11.60;99.90;;;;;;4996360;28;36423;-56
2022/05/29 00:31:40;;;;;;;;;;;11.60;99.90;;;;;;4997745;28;37652;-55
2022/05/29 00:34:07;;;;;;;;;;;11.60;99.90;;;;;;4996449;28;37346;-56
2022/05/29 00:36:36;;;;;;;;;;;11.60;99.90;;;;;;4997606;28;38564;-56
2022/05/29 00:39:03;;;;;;;;;;;11.60;99.90;;;;;;4997413;28;38285;-55
2022/05/29 00:41:31;;;;;;;;;;;11.60;99.90;;;;;;4997910;28;37360;-55
2022/05/29 00:44:09;;;;;;;;;;;11.60;99.90;;;;;;4996559;28;36584;-56
2022/05/29 00:46:37;;;;;;;;;;;11.60;99.90;;;;;;4997572;28;39841;-56
2022/05/29 00:49:08;;;;;;;;;;;11.60;99.90;;;;;;4997021;28;37600;-56
2022/05/29 00:51:36;;;;;;;;;;;11.60;99.90;;;;;;4997700;28;36898;-55
2022/05/29 00:54:04;;;;;;;;;;;11.60;99.90;;;;;;4996233;28;37276;-55
2022/05/29 00:56:32;;;;;;;;;;;11.60;99.90;;;;;;4997118;28;38880;-55
2022/05/29 00:59:00;;;;;;;;;;;11.60;99.90;;;;;;4997847;28;38270;-55
2022/05/29 01:01:29;;;;;;;;;;;11.60;99.90;;;;;;4996869;28;36207;-56
2022/05/29 01:03:59;;;;;;;;;;;11.60;99.90;;;;;;4996766;28;38511;-56
2022/05/29 01:06:28;;;;;;;;;;;11.60;99.90;;;;;;4996944;28;40516;-56
2022/05/29 01:08:56;;;;;;;;;;;11.60;99.90;;;;;;4996804;28;37424;-56
2022/05/29 01:11:28;;;;;;;;;;;11.60;99.90;;;;;;4996093;28;35976;-56
2022/05/29 01:14:00;;;;;;;;;;;11.60;99.90;;;;;;4997262;28;39900;-55
2022/05/29 01:16:33;;;;;;;;;;;11.60;99.90;;;;;;4996409;28;39849;-56
2022/05/29 01:19:05;;;;;;;;;;;11.60;99.90;;;;;;4997949;28;38620;-56
2022/05/29 01:21:45;;;;;;;;;;;11.60;99.90;;;;;;4997182;28;35102;-56
2022/05/29 01:24:22;;;;;;;;;;;11.60;99.90;;;;;;4996394;28;38029;-56
2022/05/29 01:27:06;;;;;;;;;;;11.60;99.90;;;;;;4995660;28;38266;-56
2022/05/29 01:29:41;;;;;;;;;;;11.70;99.90;;;;;;4996337;28;38747;-55
2022/05/29 01:32:12;;;;;;;;;;;11.60;99.90;;;;;;4997746;28;35875;-56
2022/05/29 01:34:42;;;;;;;;;;;11.60;99.90;;;;;;4995507;28;37664;-56
2022/05/29 01:37:13;;;;;;;;;;;11.60;99.90;;;;;;4996502;28;38326;-56
2022/05/29 01:39:46;;;;;;;;;;;11.60;99.90;;;;;;4996627;28;37504;-55
2022/05/29 01:42:16;;;;;;;;;;;11.60;99.90;;;;;;4996447;28;37127;-56
2022/05/29 01:44:46;;;;;;;;;;;11.60;99.90;;;;;;4996273;28;36622;-56
2022/05/29 01:47:15;;;;;;;;;;;11.60;99.90;;;;;;4996568;28;39089;-56
2022/05/29 01:49:45;;;;;;;;;;;11.60;99.90;;;;;;4995130;28;38385;-56
2022/05/29 01:52:15;;;;;;;;;;;11.60;99.90;;;;;;4996786;28;36897;-56
2022/05/29 01:54:44;;;;;;;;;;;11.70;99.90;;;;;;4995973;28;37920;-55
2022/05/29 01:57:13;;;;;;;;;;;11.70;99.90;;;;;;4995595;28;38695;-56
2022/05/29 01:59:42;;;;;;;;;;;11.70;99.90;;;;;;4996365;28;37240;-55
2022/05/29 02:02:13;;;;;;;;;;;11.70;99.90;;;;;;4996414;28;35300;-56
2022/05/29 02:04:43;;;;;;;;;;;11.70;99.90;;;;;;4997247;28;37312;-56
2022/05/29 02:10:07;;;;;;;;;;;11.70;99.90;;;;;;4995837;28;38616;-56
2022/05/29 02:12:36;;;;;;;;;;;11.70;99.90;;;;;;4996898;28;37501;-55
2022/05/29 02:15:06;;;;;;;;;;;11.70;99.90;;;;;;4994707;28;37837;-56
2022/05/29 02:17:37;;;;;;;;;;;11.70;99.90;;;;;;4995466;28;38145;-56
2022/05/29 02:20:06;;;;;;;;;;;11.70;99.90;;;;;;4995460;28;37176;-56
2022/05/29 02:22:35;;;;;;;;;;;11.70;99.90;;;;;;4995735;28;36061;-56
2022/05/29 02:25:05;;;;;;;;;;;11.70;99.90;;;;;;4995870;28;37716;-56
2022/05/29 02:27:34;;;;;;;;;;;11.70;99.90;;;;;;4995560;28;38055;-56
2022/05/29 02:30:02;;;;;;;;;;;11.70;99.90;;;;;;4995452;28;36738;-56
2022/05/29 02:32:33;;;;;;;;;;;11.70;99.90;;;;;;4997566;28;34965;-56
2022/05/29 02:35:04;;;;;;;;;;;11.70;99.90;;;;;;4995785;28;37512;-56
2022/05/29 02:37:37;;;;;;;;;;;11.70;99.90;;;;;;4995823;28;38994;-55
2022/05/29 02:40:09;;;;;;;;;;;11.70;99.90;;;;;;4994633;28;37437;-56
2022/05/29 02:42:40;;;;;;;;;;;11.70;99.90;;;;;;4996380;28;35746;-55
2022/05/29 02:45:10;;;;;;;;;;;11.70;99.90;;;;;;4994993;28;37544;-55
2022/05/29 02:47:41;;;;;;;;;;;11.60;99.90;;;;;;4996379;28;39608;-56
2022/05/29 02:50:17;;;;;;;;;;;11.60;99.90;;;;;;4996005;28;38501;-56
2022/05/29 02:52:44;;;;;;;;;;;11.60;99.90;;;;;;4995858;28;35888;-56
2022/05/29 02:55:11;;;;;;;;;;;11.50;99.90;;;;;;4995614;28;37887;-55
2022/05/29 02:57:39;;;;;;;;;;;11.40;99.90;;;;;;4995722;28;39441;-56
2022/05/29 03:00:11;;;;;;;;;;;11.40;99.90;;;;;;4995863;28;37628;-55
2022/05/29 03:02:39;;;;;;;;;;;11.40;99.90;;;;;;4995475;28;36006;-56
2022/05/29 03:05:13;;;;;;;;;;;11.30;99.90;;;;;;4995166;28;37566;-55
2022/05/29 03:07:46;;;;;;;;;;;11.40;99.90;;;;;;4995235;28;39614;-56
2022/05/29 03:10:15;;;;;;;;;;;11.40;99.90;;;;;;4999308;28;36382;-56
2022/05/29 03:12:52;;;;;;;;;;;11.40;99.90;;;;;;4998558;28;36350;-55
2022/05/29 03:15:24;;;;;;;;;;;11.40;99.90;;;;;;4999408;28;39909;-56
2022/05/29 03:17:55;;;;;;;;;;;11.40;99.90;;;;;;4998491;28;39881;-55
2022/05/29 03:20:28;;;;;;;;;;;11.40;99.90;;;;;;4998771;28;37425;-56
2022/05/29 03:22:59;;;;;;;;;;;11.40;99.90;;;;;;4998783;28;35892;-56
2022/05/29 03:25:28;;;;;;;;;;;11.40;99.90;;;;;;4998385;28;36502;-56
2022/05/29 03:27:58;;;;;;;;;;;11.40;99.90;;;;;;4998998;28;39379;-55
2022/05/29 03:30:27;;;;;;;;;;;11.40;99.90;;;;;;4998782;28;39971;-55
2022/05/29 03:32:57;;;;;;;;;;;11.40;99.90;;;;;;4999259;28;35253;-55
2022/05/29 03:35:25;;;;;;;;;;;11.40;99.90;;;;;;4997957;28;37787;-56
2022/05/29 03:37:53;;;;;;;;;;;11.40;99.90;;;;;;4998296;28;39218;-56
2022/05/29 03:40:22;;;;;;;;;;;11.30;99.90;;;;;;4998006;28;36445;-55
2022/05/29 03:42:49;;;;;;;;;;;11.30;99.90;;;;;;4998336;28;37628;-56
2022/05/29 03:45:16;;;;;;;;;;;11.30;99.90;;;;;;4997294;28;37385;-56
2022/05/29 03:47:43;;;;;;;;;;;11.30;99.90;;;;;;4998009;28;39874;-55
2022/05/29 03:50:11;;;;;;;;;;;11.20;99.90;;;;;;4998296;28;36693;-55
2022/05/29 03:52:38;;;;;;;;;;;11.20;99.90;;;;;;4998421;28;36946;-55
2022/05/29 03:55:07;;;;;;;;;;;11.10;99.90;;;;;;4998758;28;39302;-56
2022/05/29 03:57:35;;;;;;;;;;;11.20;99.90;;;;;;4998325;28;38384;-55
2022/05/29 04:00:03;;;;;;;;;;;11.20;99.90;;;;;;4997739;28;37384;-56
2022/05/29 04:02:30;;;;;;;;;;;11.20;99.90;;;;;;4998928;28;37091;-56
2022/05/29 04:04:57;;;;;;;;;;;11.20;99.90;;;;;;4997991;28;37852;-56
2022/05/29 04:12:03;;;;;;;;;;;11.20;99.90;;;;;;4998326;28;38423;-55
2022/05/29 04:12:58;;;;;;;;;;;11.30;99.90;;;;;;4999248;28;36473;-55
2022/05/29 04:15:27;;;;;;;;;;;11.30;99.90;;;;;;4998784;28;37444;-56
2022/05/29 04:17:54;;;;;;;;;;;11.40;99.90;;;;;;4998246;28;36996;-56
2022/05/29 04:20:22;;;;;;;;;;;11.40;99.90;;;;;;4996967;28;37845;-55
2022/05/29 04:22:50;;;;;;;;;;;11.40;99.90;;;;;;4998682;28;36489;-55
2022/05/29 04:25:17;;;;;;;;;;;11.40;99.90;;;;;;4998562;28;37403;-56
2022/05/29 04:27:44;;;;;;;;;;;11.40;99.90;;;;;;4997141;28;38576;-56
2022/05/29 04:30:13;;;;;;;;;;;11.40;99.90;;;;;;4997829;28;38132;-55
2022/05/29 04:35:24;;;;;;;;;;;11.40;99.90;;;;;;4997993;28;41554;-55
2022/05/29 04:37:51;;;;;;;;;;;11.40;99.90;;;;;;4998152;28;38276;-56
2022/05/29 04:40:18;;;;;;;;;;;11.40;99.90;;;;;;4997206;28;37567;-55
2022/05/29 04:42:45;;;;;;;;;;;11.40;99.90;;;;;;4998169;28;37418;-56
2022/05/29 04:45:14;;;;;;;;;;;11.40;99.90;;;;;;4998286;28;37211;-56
2022/05/29 04:47:43;;;;;;;;;;;11.40;99.90;;;;;;4998159;28;37886;-56
2022/05/29 04:50:11;;;;;;;;;;;11.30;99.90;;;;;;4997934;28;39265;-56
2022/05/29 04:52:38;;;;;;;;;;;11.20;99.90;;;;;;4998107;28;38083;-55
2022/05/29 04:55:06;;;;;;;;;;;11.30;99.90;;;;;;4997253;28;37894;-56
2022/05/29 04:57:33;;;;;;;;;;;11.40;99.90;;;;;;4998017;28;39202;-55
2022/05/29 05:00:00;;;;;;;;;;;11.40;99.90;;;;;;4997169;28;38534;-56
2022/05/29 05:02:28;;;;;;;;;;;11.40;99.90;;;;;;4997478;28;35199;-55
2022/05/29 05:04:55;;;;;;;;;;;11.40;99.90;;;;;;4997640;28;37218;-55
2022/05/29 05:07:22;;;;;;;;;;;11.50;99.90;;;;;;4997049;28;38332;-56
2022/05/29 05:09:49;;;;;;;;;;;11.50;99.90;;;;;;4996649;28;37775;-56
2022/05/29 05:12:16;;;;;;;;;;;11.50;99.90;;;;;;4997349;28;37530;-55
2022/05/29 05:14:44;;;;;;;;;;;11.50;99.90;;;;;;4996764;28;37592;-55
2022/05/29 05:17:11;;;;;;;;;;;11.60;99.90;;;;;;4996788;28;38505;-56
2022/05/29 05:19:39;;;;;;;;;;;11.50;99.90;;;;;;4995758;28;38167;-56
2022/05/29 05:22:08;;;;;;;;;;;11.60;99.90;;;;;;4997335;28;36138;-55
2022/05/29 05:24:37;;;;;;;;;;;11.60;99.90;;;;;;4995443;28;37344;-56
2022/05/29 05:27:04;;;;;;;;;;;11.50;99.90;;;;;;4997084;28;38430;-57
2022/05/29 05:29:31;;;;;;;;;;;11.40;99.90;;;;;;4996754;28;36325;-55
2022/05/29 05:31:58;;;;;;;;;;;11.20;99.90;;;;;;4996393;28;37663;-55
2022/05/29 05:34:27;;;;;;;;;;;11.10;99.90;;;;;;4996706;28;37508;-55
2022/05/29 05:36:55;;;;;;;;;;;11.10;99.90;;;;;;4995787;28;37080;-56
2022/05/29 05:39:23;;;;;;;;;;;11.10;99.90;;;;;;4996461;28;37562;-55
2022/05/29 05:41:50;;;;;;;;;;;11.10;99.90;;;;;;4996311;28;35908;-56
2022/05/29 05:44:18;;;;;;;;;;;11.10;99.90;;;;;;4996310;28;38502;-56
2022/05/29 05:46:45;;;;;;;;;;;11.10;99.90;;;;;;4996640;28;38616;-56
2022/05/29 05:49:12;;;;;;;;;;;11.20;99.90;;;;;;4996653;28;37328;-56
2022/05/29 05:51:39;;;;;;;;;;;11.20;99.90;;;;;;4996167;28;37723;-55
2022/05/29 05:54:08;;;;;;;;;;;11.20;99.90;;;;;;4996382;28;36611;-56
2022/05/29 05:56:35;;;;;;;;;;;11.30;99.90;;;;;;4995486;28;38168;-56
2022/05/29 05:59:02;;;;;;;;;;;11.30;99.90;;;;;;4995261;28;38701;-56
2022/05/29 06:01:29;;;;;;;;;;;11.40;99.90;;;;;;4996605;28;35170;-55
2022/05/29 06:03:56;;;;;;;;;;;11.40;99.90;;;;;;4995717;28;38460;-57
2022/05/29 06:06:24;;;;;;;;;;;11.40;99.90;;;;;;4996269;28;39153;-56
2022/05/29 06:08:51;;;;;;;;;;;11.40;99.90;;;;;;4996752;28;37750;-56
2022/05/29 06:11:19;;;;;;;;;;;11.40;99.90;;;;;;4996623;28;36607;-56
2022/05/29 06:13:46;;;;;;;;;;;11.50;99.90;;;;;;4995674;28;38266;-55
2022/05/29 06:16:14;;;;;;;;;;;11.50;99.90;;;;;;4995958;28;38085;-55
2022/05/29 06:18:41;;;;;;;;;;;11.50;99.90;;;;;;4995612;28;37467;-56
2022/05/29 06:21:08;;;;;;;;;;;11.50;99.90;;;;;;4996220;28;35451;-56
2022/05/29 06:23:36;;;;;;;;;;;11.70;99.90;;;;;;4996286;28;38427;-55
2022/05/29 06:26:04;;;;;;;;;;;11.50;99.90;;;;;;4996116;28;39279;-56
2022/05/29 06:28:33;;;;;;;;;;;11.50;99.90;;;;;;4996140;28;38396;-55
2022/05/29 06:31:00;;;;;;;;;;;11.50;99.90;;;;;;4996191;28;36502;-56
2022/05/29 06:33:29;;;;;;;;;;;11.50;99.90;;;;;;4996223;28;39466;-55
2022/05/29 06:36:05;;;;;;;;;;;11.40;99.90;;;;;;4996497;28;37205;-56
2022/05/29 06:38:32;;;;;;;;;;;11.50;99.90;;;;;;4995590;28;38955;-56
2022/05/29 06:40:59;;;;;;;;;;;11.40;99.90;;;;;;4995287;28;37545;-55
2022/05/29 06:43:26;;;;;;;;;;;11.50;99.90;;;;;;4995472;28;37261;-55
2022/05/29 06:45:58;;;;;;;;;;;11.50;99.90;;;;;;4995311;28;39283;-56
2022/05/29 06:48:25;;;;;;;;;;;11.50;99.90;;;;;;4994424;28;38372;-56
2022/05/29 06:50:52;;;;;;;;;;;11.60;99.90;;;;;;4996294;28;37100;-56
2022/05/29 06:53:20;;;;;;;;;;;11.60;99.90;;;;;;4994964;28;38031;-56
2022/05/29 06:55:51;;;;;;;;;;;11.60;99.90;;;;;;4994315;28;38091;-55
2022/05/29 06:58:18;;;;;;;;;;;11.60;99.90;;;;;;4995153;28;36363;-57
2022/05/29 07:09:00;;;;;;;;;;;11.70;99.90;;;;;;4996155;28;38079;-56
2022/05/29 07:11:30;;;;;;;;;;;11.70;99.90;;;;;;4996221;28;37054;-56
2022/05/29 07:13:58;;;;;;;;;;;11.60;99.90;;;;;;4996555;28;36537;-55
2022/05/29 07:16:25;;;;;;;;;;;11.60;99.90;;;;;;4995934;28;40187;-56
2022/05/29 07:18:53;;;;;;;;;;;11.60;99.90;;;;;;4994801;28;38278;-56
2022/05/29 07:21:21;;;;;;;;;;;11.50;99.90;;;;;;4995714;28;37119;-56
2022/05/29 07:23:48;;;;;;;;;;;11.50;99.90;;;;;;4995146;28;36455;-55
2022/05/29 07:26:16;;;;;;;;;;;11.40;99.90;;;;;;4994329;28;39011;-56
2022/05/29 07:28:43;;;;;;;;;;;11.40;99.90;;;;;;4995770;28;38577;-56
2022/05/29 07:31:11;;;;;;;;;;;11.40;99.90;;;;;;4994943;28;36625;-58
2022/05/29 07:33:39;;;;;;;;;;;11.50;99.90;;;;;;4995330;28;39358;-55
2022/05/29 07:36:09;;;;;;;;;;;11.50;99.90;;;;;;4994611;28;38848;-55
2022/05/29 07:38:36;;;;;;;;;;;11.60;99.90;;;;;;4995164;28;36470;-56
2022/05/29 07:43:18;;;;;;;;;;;11.60;99.90;;;;;;4995431;28;36248;-56
2022/05/29 07:43:51;;;;;;;;;;;11.50;99.90;;;;;;4995186;28;41006;-56
2022/05/29 07:46:18;;;;;;;;;;;11.60;99.90;;;;;;4995079;28;38620;-56
2022/05/29 07:48:45;;;;;;;;;;;11.60;99.90;;;;;;4994882;28;39924;-56
2022/05/29 07:51:13;;;;;;;;;;;11.60;99.90;;;;;;4995799;28;37617;-56
2022/05/29 07:53:41;;;;;;;;;;;11.60;99.90;;;;;;4995037;28;37401;-56
2022/05/29 07:56:08;;;;;;;;;;;11.60;99.90;;;;;;4998148;28;37171;-55
2022/05/29 07:58:38;;;;;;;;;;;11.70;99.90;;;;;;4999131;28;39032;-55
2022/05/29 08:01:05;;;;;;;;;;;11.70;99.90;;;;;;4998012;28;33869;-55
2022/05/29 08:03:32;;;;;;;;;;;11.60;99.90;;;;;;4999122;28;38644;-55
2022/05/29 08:06:00;;;;;;;;;;;11.60;99.90;;;;;;4999105;28;39217;-55
2022/05/29 08:08:29;;;;;;;;;;;11.60;99.90;;;;;;4998059;28;36286;-56
2022/05/29 08:10:56;;;;;;;;;;;11.70;99.90;;;;;;4996960;28;36645;-55
2022/05/29 08:13:24;;;;;;;;;;;11.70;99.90;;;;;;4998744;28;39455;-56
2022/05/29 08:15:53;;;;;;;;;;;11.70;99.90;;;;;;4999479;28;38368;-56
2022/05/29 08:18:20;;;;;;;;;;;11.70;99.90;;;;;;4998728;28;41346;-56
2022/05/29 08:20:47;;;;;;;;;;;11.70;99.90;;;;;;4997588;28;36376;-56
2022/05/29 08:23:14;;;;;;;;;;;11.70;99.90;;;;;;4998636;28;37652;-55
2022/05/29 08:31:12;;;;;;;;;;;11.50;99.90;;;;;;4999394;28;37750;-55
2022/05/29 08:33:39;;;;;;;;;;;11.50;99.90;;;;;;4998085;28;37654;-55
2022/05/29 08:36:08;;;;;;;;;;;11.50;99.90;;;;;;4998537;28;39120;-55
2022/05/29 08:38:36;;;;;;;;;;;11.50;99.90;;;;;;4997995;28;38629;-56
2022/05/29 08:41:05;;;;;;;;;;;11.60;99.90;;;;;;4998173;28;36519;-56
2022/05/29 08:43:33;;;;;;;;;;;11.70;99.90;;;;;;4997579;28;37441;-56
2022/05/29 08:46:04;;;;;;;;;;;11.70;99.90;;;;;;4997191;28;38287;-56
2022/05/29 08:48:31;;;;;;;;;;;11.80;99.90;;;;;;4997645;28;39429;-56
2022/05/29 08:51:03;;;;;;;;;;;11.80;99.90;;;;;;4997279;28;35798;-55
2022/05/29 08:53:35;;;;;;;;;;;11.80;99.90;;;;;;4998785;28;37489;-56
2022/05/29 08:56:07;;;;;;;;;;;11.80;99.90;;;;;;4998314;28;38498;-56
2022/05/29 08:58:37;;;;;;;;;;;11.70;99.90;;;;;;4997922;28;37448;-55
2022/05/29 09:01:08;;;;;;;;;;;11.70;99.90;;;;;;4998189;28;36644;-56
2022/05/29 09:03:45;;;;;;;;;;;11.60;99.90;;;;;;4996756;28;37253;-56
2022/05/29 09:06:14;;;;;;;;;;;11.50;99.90;;;;;;4997174;28;39278;-56
2022/05/29 09:08:44;;;;;;;;;;;11.40;99.90;;;;;;4997749;28;37244;-56
2022/05/29 09:11:16;;;;;;;;;;;11.40;99.90;;;;;;4997674;28;36466;-56
2022/05/29 09:13:46;;;;;;;;;;;11.40;99.90;;;;;;4995973;28;38300;-56
2022/05/29 09:16:14;;;;;;;;;;;11.50;99.90;;;;;;4996517;28;38024;-56
2022/05/29 09:18:42;;;;;;;;;;;11.50;99.90;;;;;;4998126;28;37050;-56
2022/05/29 09:21:12;;;;;;;;;;;11.50;99.90;;;;;;4996940;28;37422;-57
2022/05/29 09:23:42;;;;;;;;;;;11.60;99.90;;;;;;4997064;28;36700;-56
2022/05/29 09:26:12;;;;;;;;;;;11.60;99.90;;;;;;4997674;28;38705;-56
2022/05/29 09:28:42;;;;;;;;;;;11.70;99.90;;;;;;4996265;28;36411;-56
2022/05/29 09:31:11;;;;;;;;;;;11.70;99.90;;;;;;4996781;28;36187;-56
2022/05/29 09:33:39;;;;;;;;;;;11.80;99.90;;;;;;4997518;28;37559;-56
2022/05/29 09:36:10;;;;;;;;;;;11.70;99.90;;;;;;4996833;28;39670;-56
2022/05/29 09:38:40;;;;;;;;;;;11.80;99.90;;;;;;4996054;28;37684;-54
2022/05/29 09:41:10;;;;;;;;;;;11.80;99.90;;;;;;4996978;28;36220;-56
2022/05/29 09:43:37;;;;;;;;;;;11.80;99.90;;;;;;4996161;28;37713;-55
2022/05/29 09:46:20;;;;;;;;;;;11.80;99.90;;;;;;4996918;28;37783;-56
2022/05/29 09:51:41;;;;;;;;;;;12.00;99.90;;;;;;4996638;28;38188;-55
2022/05/29 09:54:10;;;;;;;;;;;12.10;99.90;;;;;;4997193;28;37594;-56
2022/05/29 09:56:37;;;;;;;;;;;12.20;99.90;;;;;;4996257;28;39070;-56
2022/05/29 09:59:05;;;;;;;;;;;12.30;99.90;;;;;;4996888;28;38345;-55
2022/05/29 10:01:36;;;;;;;;;;;12.30;99.90;;;;;;4996993;28;36253;-57
2022/05/29 10:04:04;;;;;;;;;;;12.30;99.90;;;;;;4996409;28;37259;-56
2022/05/29 10:06:33;;;;;;;;;;;12.20;99.90;;;;;;4997525;28;38950;-56
2022/05/29 10:09:05;;;;;;;;;;;12.10;99.90;;;;;;4996638;28;37364;-56
2022/05/29 10:11:32;;;;;;;;;;;12.10;99.90;;;;;;4997071;28;36034;-56
2022/05/29 10:14:01;;;;;;;;;;;12.00;99.90;;;;;;4996614;28;38414;-57
2022/05/29 10:16:36;;;;;;;;;;;12.00;99.90;;;;;;4996198;28;39816;-55
2022/05/29 10:19:04;;;;;;;;;;;12.00;99.90;;;;;;4996696;28;36299;-56
2022/05/29 10:21:32;;;;;;;;;;;12.00;99.90;;;;;;4996479;28;35783;-56
2022/05/29 10:24:12;;;;;;;;;;;12.00;99.90;;;;;;4996291;28;39157;-56
2022/05/29 10:26:39;;;;;;;;;;;12.00;99.90;;;;;;4996117;28;38207;-56
2022/05/29 10:29:13;;;;;;;;;;;12.00;99.90;;;;;;4997131;28;36974;-56
2022/05/29 10:31:42;;;;;;;;;;;12.00;99.90;;;;;;4995507;28;36624;-55
2022/05/29 10:34:10;;;;;;;;;;;12.00;99.90;;;;;;4995600;28;37059;-56
2022/05/29 10:36:38;;;;;;;;;;;12.00;99.90;;;;;;4995550;28;38886;-56
2022/05/29 10:39:11;;;;;;;;;;;12.10;99.90;;;;;;4995105;28;37429;-56
2022/05/29 10:41:39;;;;;;;;;;;12.10;99.90;;;;;;4995278;28;35819;-56
2022/05/29 10:44:06;;;;;;;;;;;12.20;99.90;;;;;;4996777;28;41403;-56
2022/05/29 10:46:45;;;;;;;;;;;12.30;99.90;;;;;;4995885;28;39083;-55
2022/05/29 10:49:25;;;;;;;;;;;12.40;99.90;;;;;;4996652;28;37166;-56
2022/05/29 10:52:07;;;;;;;;;;;12.40;99.80;;;;;;4995563;28;36379;-56
2022/05/29 10:54:41;;;;;;;;;;;12.40;99.90;;;;;;4992839;28;37454;-56
2022/05/29 10:57:15;;;;;;;;;;;12.30;99.50;;;;;;4996026;28;38019;-56
2022/05/29 10:59:52;;;;;;;;;;;12.10;99.70;;;;;;4996054;28;39146;-56
2022/05/29 11:05:20;;;;;;;;;;;11.70;99.90;;;;;;4996848;28;39514;-56
2022/05/29 11:07:55;;;;;;;;;;;11.50;99.90;;;;;;4995095;28;38559;-56
2022/05/29 11:10:31;;;;;;;;;;;11.50;99.90;;;;;;4995546;28;40930;-57
2022/05/29 11:13:04;;;;;;;;;;;11.50;99.90;;;;;;4996199;28;37415;-56
2022/05/29 11:15:35;;;;;;;;;;;11.50;99.90;;;;;;4995127;28;37274;-55
2022/05/29 11:18:20;;;;;;;;;;;11.60;99.90;;;;;;4996319;28;38691;-56
2022/05/29 11:20:55;;;;;;;;;;;11.60;99.90;;;;;;4995441;28;37446;-57
2022/05/29 11:23:37;;;;;;;;;;;11.80;99.90;;;;;;4995765;28;36256;-56
2022/05/29 11:26:08;;;;;;;;;;;11.90;99.90;;;;;;4995429;28;37627;-56
2022/05/29 11:28:50;;;;;;;;;;;12.00;99.90;;;;;;4994517;28;38955;-56
2022/05/29 11:31:26;;;;;;;;;;;12.10;99.90;;;;;;4995785;28;37023;-56
2022/05/29 11:34:01;;;;;;;;;;;12.20;99.90;;;;;;4996740;28;36411;-56
2022/05/29 11:36:36;;;;;;;;;;;12.30;99.90;;;;;;4998902;28;37863;-56
2022/05/29 11:39:18;;;;;;;;;;;12.30;99.90;;;;;;4999523;28;37642;-56
2022/05/29 11:41:47;;;;;;;;;;;12.40;99.90;;;;;;4998936;28;37706;-55
2022/05/29 11:44:19;;;;;;;;;;;12.40;99.90;;;;;;4998510;28;36828;-56
2022/05/29 11:52:28;;;;;;;;;;;12.40;99.60;;;;;;4998096;28;39348;-56
2022/05/29 11:55:00;;;;;;;;;;;12.50;99.60;;;;;;4999106;28;37038;-56
2022/05/29 11:57:30;;;;;;;;;;;12.50;99.60;;;;;;4999901;28;37610;-56
2022/05/29 12:00:01;;;;;;;;;;;12.50;99.60;;;;;;4997504;28;39345;-56
2022/05/29 12:02:33;;;;;;;;;;;12.50;99.90;;;;;;4997314;28;37239;-55
2022/05/29 12:05:09;;;;;;;;;;;12.50;99.90;;;;;;4997759;28;37051;-56
2022/05/29 12:07:41;;;;;;;;;;;12.50;99.90;;;;;;4997015;28;36469;-56
2022/05/29 12:10:10;;;;;;;;;;;12.40;99.90;;;;;;4997720;28;38194;-56
2022/05/29 12:12:39;;;;;;;;;;;12.30;99.90;;;;;;4997278;28;38115;-56
2022/05/29 12:15:09;;;;;;;;;;;12.20;99.90;;;;;;4998548;28;36723;-57
2022/05/29 12:17:38;;;;;;;;;;;12.10;99.90;;;;;;4997107;28;35986;-56
2022/05/29 12:20:09;;;;;;;;;;;12.00;99.90;;;;;;4997154;28;38639;-56
2022/05/29 12:22:39;;;;;;;;;;;11.90;99.90;;;;;;4998587;28;36321;-56
2022/05/29 12:25:11;;;;;;;;;;;12.00;99.90;;;;;;4998428;28;38303;-56
2022/05/29 12:27:40;;;;;;;;;;;12.00;99.90;;;;;;4998751;28;38422;-56
2022/05/29 12:30:10;;;;;;;;;;;12.00;99.90;;;;;;4997252;28;38464;-57
2022/05/29 12:32:37;;;;;;;;;;;12.00;99.90;;;;;;4997568;28;39195;-56
2022/05/29 12:35:08;;;;;;;;;;;12.10;99.90;;;;;;4997464;28;34346;-56
2022/05/29 12:37:50;;;;;;;;;;;12.10;99.90;;;;;;4997060;28;40177;-56
2022/05/29 12:40:32;;;;;;;;;;;12.20;99.90;;;;;;4996199;28;36993;-56
2022/05/29 12:43:07;;;;;;;;;;;12.30;99.90;;;;;;4996072;28;37574;-56
2022/05/29 12:45:39;;;;;;;;;;;12.30;99.90;;;;;;4997499;28;36282;-57
2022/05/29 12:48:32;;;;;;;;;;;12.40;99.70;;;;;;4997694;28;37879;-56
2022/05/29 12:51:20;;;;;;;;;;;12.30;99.60;;;;;;4996506;28;38916;-56
2022/05/29 12:54:05;;;;;;;;;;;12.30;99.60;;;;;;4991414;28;38537;-56
2022/05/29 12:56:38;;;;;;;;;;;12.20;99.50;;;;;;4998075;28;36460;-56
2022/05/29 12:59:26;;;;;;;;;;;12.20;99.40;;;;;;4997247;28;39251;-56
2022/05/29 13:01:58;;;;;;;;;;;12.20;99.00;;;;;;4990666;28;37787;-57
2022/05/29 13:04:46;;;;;;;;;;;12.20;98.80;;;;;;4996482;28;35722;-56
2022/05/29 13:07:23;;;;;;;;;;;12.20;98.70;;;;;;4989978;28;37055;-56
2022/05/29 13:09:57;;;;;;;;;;;12.20;98.90;;;;;;4997676;28;38752;-56
2022/05/29 13:12:28;;;;;;;;;;;12.30;99.10;;;;;;4997612;28;38369;-56
2022/05/29 13:14:57;;;;;;;;;;;12.40;99.20;;;;;;4995595;28;37379;-57
2022/05/29 13:17:25;;;;;;;;;;;12.50;98.70;;;;;;4998678;28;35363;-56
2022/05/29 13:19:54;;;;;;;;;;;12.60;98.60;;;;;;4996551;28;38709;-56
2022/05/29 13:22:21;;;;;;;;;;;12.60;98.80;;;;;;4995861;28;37176;-56
2022/05/29 13:25:00;;;;;;;;;;;12.60;98.60;;;;;;4996017;28;37562;-56
2022/05/29 13:27:30;;;;;;;;;;;12.70;98.50;;;;;;4998261;28;36108;-56
2022/05/29 13:29:58;;;;;;;;;;;12.70;98.60;;;;;;4996836;28;37795;-57
2022/05/29 13:32:26;;;;;;;;;;;12.70;98.30;;;;;;4997038;28;39344;-57
2022/05/29 13:35:15;;;;;;;;;;;12.60;98.30;;;;;;4996545;28;38961;-56
2022/05/29 13:37:45;;;;;;;;;;;12.60;97.80;;;;;;4995983;28;36208;-56
2022/05/29 13:40:35;;;;;;;;;;;12.60;97.80;;;;;;4996645;28;38642;-56
2022/05/29 13:43:19;;;;;;;;;;;12.50;98.20;;;;;;4997163;28;38430;-56
2022/05/29 13:46:00;;;;;;;;;;;12.50;97.60;;;;;;4995680;28;38235;-56
2022/05/29 13:48:27;;;;;;;;;;;12.50;97.80;;;;;;4997418;28;36582;-56
2022/05/29 13:50:56;;;;;;;;;;;12.50;97.60;;;;;;4995294;28;37469;-56
2022/05/29 13:53:38;;;;;;;;;;;12.50;97.30;;;;;;4996281;28;38405;-56
2022/05/29 13:56:09;;;;;;;;;;;12.50;97.90;;;;;;4983088;28;38714;-56
2022/05/29 14:04:33;;;;;;;;;;;12.60;96.80;;;;;;4995884;28;39717;-56
2022/05/29 14:07:14;;;;;;;;;;;12.60;97.00;;;;;;4995502;28;37228;-56
2022/05/29 14:09:42;;;;;;;;;;;12.60;96.50;;;;;;4996259;28;37699;-56
2022/05/29 14:12:13;;;;;;;;;;;12.70;96.80;;;;;;4996553;28;38781;-56
2022/05/29 14:14:46;;;;;;;;;;;12.70;97.30;;;;;;4997316;28;37726;-56
2022/05/29 14:17:20;;;;;;;;;;;12.70;97.20;;;;;;4996930;28;37866;-56
2022/05/29 14:20:01;;;;;;;;;;;12.80;97.30;;;;;;4996149;28;36416;-57
2022/05/29 14:25:23;;;;;;;;;;;12.70;97.10;;;;;;4990901;28;39711;-57
2022/05/29 14:28:05;;;;;;;;;;;12.70;97.70;;;;;;4995353;28;39630;-56
2022/05/29 14:30:45;;;;;;;;;;;12.70;97.70;;;;;;4994666;28;35232;-56
2022/05/29 14:33:28;;;;;;;;;;;12.70;97.40;;;;;;4994978;28;38855;-57
2022/05/29 14:36:12;;;;;;;;;;;12.60;97.40;;;;;;4994125;28;38456;-56
2022/05/29 14:38:51;;;;;;;;;;;12.60;97.70;;;;;;4996669;28;35567;-56
2022/05/29 14:41:20;;;;;;;;;;;12.60;97.70;;;;;;4994921;28;35178;-56
2022/05/29 14:43:47;;;;;;;;;;;12.60;97.70;;;;;;4996376;28;37888;-57
2022/05/29 14:46:18;;;;;;;;;;;12.60;97.40;;;;;;4993901;28;37235;-56
2022/05/29 14:48:55;;;;;;;;;;;12.60;97.00;;;;;;4996921;28;38035;-56
2022/05/29 14:51:26;;;;;;;;;;;12.50;97.20;;;;;;4995847;28;36447;-57
2022/05/29 14:53:57;;;;;;;;;;;12.50;97.40;;;;;;4995406;28;38532;-57
2022/05/29 14:56:32;;;;;;;;;;;12.50;97.30;;;;;;4997124;28;38259;-56
2022/05/29 14:59:14;;;;;;;;;;;12.40;96.80;;;;;;4994965;28;38835;-56
2022/05/29 15:01:42;;;;;;;;;;;12.40;96.50;;;;;;4995668;28;36042;-57
2022/05/29 15:04:09;;;;;;;;;;;12.30;96.80;;;;;;4995561;28;39196;-57
2022/05/29 15:10:30;;;;;;;;;;;12.30;97.20;;;;;;4997032;28;39929;-57
2022/05/29 15:12:21;;;;;;;;;;;12.30;96.90;;;;;;4996891;28;37852;-56
2022/05/29 15:14:48;;;;;;;;;;;12.30;97.10;;;;;;4996011;28;38047;-56
2022/05/29 15:17:21;;;;;;;;;;;12.30;96.70;;;;;;4996379;28;37162;-56
2022/05/29 15:25:24;;;;;;;;;;;12.30;97.10;;;;;;4997377;28;38607;-56
2022/05/29 15:27:54;;;;;;;;;;;12.30;97.10;;;;;;4996975;28;37204;-56